createdAt,value
2019-03-19T00:02:19.026Z,99.90
2019-03-19T00:04:51.667Z,99.90
2019-03-19T00:07:24.329Z,99.90
2019-03-19T00:09:56.960Z,99.90
2019-03-19T00:12:29.595Z,99.90
2019-03-19T00:15:02.228Z,99.90
2019-03-19T00:17:34.856Z,99.90
2019-03-19T00:20:08.282Z,99.90
2019-03-19T00:22:40.956Z,99.90
2019-03-19T00:25:13.569Z,99.90
2019-03-19T00:27:46.223Z,99.90
2019-03-19T00:30:18.849Z,99.90
2019-03-19T00:32:51.495Z,99.90
2019-03-19T00:35:24.116Z,99.90
2019-03-19T00:37:56.760Z,99.90
2019-03-19T00:40:29.403Z,99.90
2019-03-19T00:43:02.079Z,99.90
2019-03-19T00:45:34.719Z,99.90
2019-03-19T00:48:07.379Z,99.90
2019-03-19T00:50:40.011Z,99.90
2019-03-19T00:53:12.674Z,99.90
2019-03-19T00:55:45.309Z,99.90
2019-03-19T00:58:17.940Z,99.90
2019-03-19T01:00:50.572Z,99.90
2019-03-19T01:03:23.211Z,99.90
2019-03-19T01:05:55.931Z,99.90
2019-03-19T01:08:28.573Z,99.90
2019-03-19T01:11:01.209Z,99.90
2019-03-19T01:13:33.851Z,99.90
2019-03-19T01:16:06.487Z,99.90
2019-03-19T01:18:39.141Z,99.90
2019-03-19T01:21:11.775Z,99.90
2019-03-19T01:23:44.483Z,99.90
2019-03-19T01:26:17.156Z,99.90
2019-03-19T01:28:49.795Z,99.90
2019-03-19T01:31:22.431Z,99.90
2019-03-19T01:33:55.084Z,99.90
2019-03-19T01:36:27.716Z,99.90
2019-03-19T01:39:00.379Z,99.90
2019-03-19T01:41:33.007Z,99.90
2019-03-19T01:44:05.669Z,99.90
2019-03-19T01:46:38.375Z,99.90
2019-03-19T01:49:11.017Z,99.90
2019-03-19T01:51:43.652Z,99.90
2019-03-19T01:54:16.324Z,99.90
2019-03-19T01:56:48.973Z,99.90
2019-03-19T01:59:21.614Z,99.90
2019-03-19T02:01:54.260Z,99.90
2019-03-19T02:04:26.907Z,99.90
2019-03-19T02:06:59.539Z,99.90
2019-03-19T02:09:32.196Z,99.90
2019-03-19T02:12:04.863Z,99.90
2019-03-19T02:14:37.507Z,99.90
2019-03-19T02:17:12.540Z,99.90
2019-03-19T02:19:44.536Z,99.90
2019-03-19T02:22:17.187Z,99.90
2019-03-19T02:24:49.860Z,99.90
2019-03-19T02:27:22.498Z,99.90
2019-03-19T02:29:55.191Z,99.90
2019-03-19T02:32:28.680Z,99.90
2019-03-19T02:35:01.378Z,99.90
2019-03-19T02:37:34.068Z,99.90
2019-03-19T02:40:07.173Z,99.90
2019-03-19T02:42:39.808Z,99.90
2019-03-19T02:45:12.580Z,99.90
2019-03-19T02:47:45.219Z,99.90
2019-03-19T02:50:17.960Z,99.90
2019-03-19T02:52:50.588Z,99.90
2019-03-19T02:55:23.232Z,99.90
2019-03-19T02:57:55.867Z,99.90
2019-03-19T03:00:28.516Z,99.90
2019-03-19T03:03:01.142Z,99.90
2019-03-19T03:05:34.023Z,99.90
2019-03-19T03:08:06.652Z,99.90
2019-03-19T03:10:39.293Z,99.90
2019-03-19T03:13:11.931Z,99.90
2019-03-19T03:15:44.595Z,99.90
2019-03-19T03:18:17.238Z,99.90
2019-03-19T03:20:49.892Z,99.90
2019-03-19T03:23:22.544Z,99.90
2019-03-19T03:25:55.210Z,99.90
2019-03-19T03:28:27.845Z,99.90
2019-03-19T03:31:00.488Z,99.90
2019-03-19T03:33:33.171Z,99.90
2019-03-19T03:36:05.864Z,99.90
2019-03-19T03:38:38.494Z,99.90
2019-03-19T03:41:11.157Z,99.90
2019-03-19T03:43:43.789Z,99.90
2019-03-19T03:46:16.429Z,99.90
2019-03-19T03:48:49.065Z,99.90
2019-03-19T03:51:21.722Z,99.90
2019-03-19T03:53:54.348Z,99.90
2019-03-19T03:56:26.984Z,99.90
2019-03-19T03:59:00.926Z,99.90
2019-03-19T04:01:34.142Z,99.90
2019-03-19T04:04:06.776Z,99.90
2019-03-19T04:06:39.430Z,99.90
2019-03-19T04:09:12.060Z,99.90
2019-03-19T04:11:44.695Z,99.90
2019-03-19T04:14:17.331Z,99.90
2019-03-19T04:16:49.980Z,99.90
2019-03-19T04:19:22.612Z,99.90
2019-03-19T04:21:55.309Z,99.90
2019-03-19T04:24:27.955Z,99.90
2019-03-19T04:27:00.615Z,99.90
2019-03-19T04:29:33.299Z,99.90
2019-03-19T04:32:05.986Z,99.90
2019-03-19T04:34:38.613Z,99.90
2019-03-19T04:37:11.278Z,99.90
2019-03-19T04:39:43.908Z,99.90
2019-03-19T04:42:16.556Z,99.90
2019-03-19T04:44:49.188Z,99.90
2019-03-19T04:47:21.831Z,99.90
2019-03-19T04:49:54.485Z,99.90
2019-03-19T04:52:27.128Z,99.90
2019-03-19T04:54:59.764Z,99.90
2019-03-19T04:57:32.400Z,99.90
2019-03-19T05:00:05.184Z,99.90
2019-03-19T05:02:37.835Z,99.90
2019-03-19T05:05:10.484Z,99.90
2019-03-19T05:07:43.140Z,99.90
2019-03-19T05:10:15.795Z,99.90
2019-03-19T05:12:48.457Z,99.90
2019-03-19T05:15:21.108Z,99.90
2019-03-19T05:17:53.768Z,99.90
2019-03-19T05:20:26.387Z,99.90
2019-03-19T05:22:59.035Z,99.90
2019-03-19T05:25:31.682Z,99.90
2019-03-19T05:28:04.339Z,99.90
2019-03-19T05:30:36.993Z,99.90
2019-03-19T05:33:09.653Z,99.90
2019-03-19T05:35:42.283Z,99.90
2019-03-19T05:38:14.940Z,99.90
2019-03-19T05:40:47.567Z,99.90
2019-03-19T05:43:20.211Z,99.90
2019-03-19T05:45:52.839Z,99.90
2019-03-19T05:48:25.512Z,99.90
2019-03-19T05:50:58.134Z,99.90
2019-03-19T05:53:30.788Z,99.90
2019-03-19T05:56:03.439Z,99.90
2019-03-19T05:58:36.091Z,99.90
2019-03-19T06:01:08.727Z,99.90
2019-03-19T06:03:41.373Z,99.90
2019-03-19T06:06:14.004Z,99.90
2019-03-19T06:08:46.647Z,99.90
2019-03-19T06:11:19.284Z,99.90
2019-03-19T06:13:51.955Z,99.90
2019-03-19T06:16:24.614Z,99.90
2019-03-19T06:18:57.257Z,99.90
2019-03-19T06:21:29.976Z,99.90
2019-03-19T06:24:02.640Z,99.90
2019-03-19T06:26:35.291Z,99.90
2019-03-19T06:29:07.976Z,99.90
2019-03-19T06:31:40.608Z,99.90
2019-03-19T06:34:13.309Z,99.90
2019-03-19T06:36:46.013Z,99.90
2019-03-19T06:39:18.732Z,99.90
2019-03-19T06:41:51.363Z,99.90
2019-03-19T06:44:24.020Z,99.90
2019-03-19T06:46:56.672Z,99.90
2019-03-19T06:49:29.378Z,99.90
2019-03-19T06:52:02.040Z,99.90
2019-03-19T06:54:34.687Z,99.90
2019-03-19T06:57:07.343Z,99.90
2019-03-19T06:59:39.977Z,99.90
2019-03-19T07:02:12.603Z,99.90
2019-03-19T07:04:45.280Z,99.90
2019-03-19T07:07:17.924Z,99.90
2019-03-19T07:09:50.572Z,99.90
2019-03-19T07:12:23.223Z,99.90
2019-03-19T07:14:55.912Z,98.50
2019-03-19T07:17:28.756Z,98.70
2019-03-19T07:20:01.420Z,95.90
2019-03-19T07:22:34.053Z,97.20
2019-03-19T07:25:07.420Z,95.20
2019-03-19T07:27:40.048Z,91.60
2019-03-19T07:30:14.279Z,94.30
2019-03-19T07:32:46.916Z,93.10
2019-03-19T07:35:19.557Z,86.70
2019-03-19T07:37:52.202Z,87.00
2019-03-19T07:40:24.847Z,85.20
2019-03-19T07:42:57.595Z,83.10
2019-03-19T07:45:30.244Z,80.40
2019-03-19T07:48:02.875Z,90.70
2019-03-19T07:50:37.603Z,92.10
2019-03-19T07:53:10.239Z,87.00
2019-03-19T07:55:42.900Z,89.50
2019-03-19T07:58:15.541Z,89.30
2019-03-19T08:00:48.197Z,86.30
2019-03-19T08:03:20.851Z,90.20
2019-03-19T08:05:53.904Z,89.00
2019-03-19T08:08:26.543Z,90.90
2019-03-19T08:10:59.203Z,92.30
2019-03-19T08:13:31.855Z,96.30
2019-03-19T08:16:04.527Z,99.10
2019-03-19T08:18:37.292Z,99.90
2019-03-19T08:21:09.959Z,99.90
2019-03-19T08:23:42.600Z,99.90
2019-03-19T08:26:15.275Z,99.90
2019-03-19T08:28:55.083Z,99.90
2019-03-19T08:31:22.281Z,99.90
2019-03-19T08:33:54.922Z,99.90
2019-03-19T08:36:27.566Z,99.90
2019-03-19T08:39:00.207Z,99.90
2019-03-19T08:41:32.879Z,99.90
2019-03-19T08:44:05.525Z,99.90
2019-03-19T08:46:38.195Z,99.90
2019-03-19T08:49:10.986Z,99.90
2019-03-19T08:51:43.632Z,99.90
2019-03-19T08:54:16.259Z,99.90
2019-03-19T08:56:48.924Z,99.90
2019-03-19T08:59:21.560Z,99.90
2019-03-19T09:01:54.219Z,99.90
2019-03-19T09:04:26.867Z,99.90
2019-03-19T09:06:59.519Z,99.90
2019-03-19T09:09:32.165Z,99.90
2019-03-19T09:12:04.820Z,99.90
2019-03-19T09:14:37.490Z,99.90
2019-03-19T09:17:10.167Z,99.90
2019-03-19T09:19:42.815Z,99.90
2019-03-19T09:22:15.694Z,99.90
2019-03-19T09:24:48.350Z,99.90
2019-03-19T09:27:21.051Z,99.90
2019-03-19T09:29:53.763Z,99.90
2019-03-19T09:32:26.426Z,99.90
2019-03-19T09:34:59.222Z,99.90
2019-03-19T09:37:31.892Z,99.90
2019-03-19T09:40:04.917Z,99.90
2019-03-19T09:42:37.615Z,99.90
2019-03-19T09:45:10.487Z,99.90
2019-03-19T09:47:43.164Z,99.90
2019-03-19T09:50:15.882Z,99.90
2019-03-19T09:52:48.603Z,99.90
2019-03-19T09:55:21.231Z,99.90
2019-03-19T09:57:53.879Z,99.90
2019-03-19T10:00:26.525Z,99.90
2019-03-19T10:02:59.200Z,99.90
2019-03-19T10:05:31.845Z,99.90
2019-03-19T10:08:04.576Z,99.90
2019-03-19T10:10:37.278Z,99.50
2019-03-19T10:13:10.014Z,99.90
2019-03-19T10:15:42.740Z,99.10
2019-03-19T10:18:15.400Z,99.90
2019-03-19T10:20:48.035Z,99.90
2019-03-19T10:23:20.702Z,99.50
2019-03-19T10:25:53.356Z,99.40
2019-03-19T10:28:26.024Z,99.60
2019-03-19T10:30:58.659Z,99.60
2019-03-19T10:33:31.363Z,99.00
2019-03-19T10:36:04.038Z,98.90
2019-03-19T10:38:36.708Z,98.90
2019-03-19T10:41:09.347Z,98.40
2019-03-19T10:43:42.029Z,97.90
2019-03-19T10:46:14.966Z,98.40
2019-03-19T10:48:47.766Z,98.70
2019-03-19T10:51:20.391Z,98.00
2019-03-19T10:53:53.044Z,98.50
2019-03-19T10:56:25.723Z,94.40
2019-03-19T10:58:58.389Z,95.90
2019-03-19T11:01:31.095Z,95.80
2019-03-19T11:04:03.805Z,96.90
2019-03-19T11:06:36.445Z,97.90
2019-03-19T11:09:09.364Z,96.80
2019-03-19T11:11:42.252Z,99.90
2019-03-19T11:14:14.911Z,96.00
2019-03-19T11:16:47.792Z,97.00
2019-03-19T11:19:20.475Z,97.00
2019-03-19T11:21:53.359Z,98.90
2019-03-19T11:24:26.007Z,97.80
2019-03-19T11:26:58.647Z,96.80
2019-03-19T11:29:31.292Z,96.80
2019-03-19T11:32:03.946Z,97.00
2019-03-19T11:34:36.628Z,98.20
2019-03-19T11:37:09.260Z,98.00
2019-03-19T11:39:41.923Z,99.40
2019-03-19T11:42:14.565Z,97.40
2019-03-19T11:44:47.231Z,97.50
2019-03-19T11:47:19.864Z,96.60
2019-03-19T11:49:52.604Z,96.90
2019-03-19T11:52:25.336Z,97.20
2019-03-19T11:54:58.114Z,97.00
2019-03-19T11:57:30.814Z,97.20
2019-03-19T12:00:11.208Z,96.90
2019-03-19T12:02:39.636Z,95.40
2019-03-19T12:05:12.952Z,94.90
2019-03-19T12:07:45.627Z,96.10
2019-03-19T12:10:18.268Z,97.30
2019-03-19T12:12:51.071Z,94.60
2019-03-19T12:15:23.763Z,96.20
2019-03-19T12:17:56.395Z,96.40
2019-03-19T12:20:29.118Z,96.40
2019-03-19T12:23:01.788Z,95.20
2019-03-19T12:25:34.438Z,95.00
2019-03-19T12:28:07.162Z,95.30
2019-03-19T12:30:41.010Z,92.80
2019-03-19T12:33:13.715Z,95.30
2019-03-19T12:35:46.375Z,93.50
2019-03-19T12:38:19.015Z,94.10
2019-03-19T12:40:51.738Z,96.20
2019-03-19T12:43:24.395Z,93.90
2019-03-19T12:48:30.661Z,93.30
2019-03-19T12:51:03.346Z,94.10
2019-03-19T12:53:36.099Z,93.70
2019-03-19T12:56:08.755Z,92.40
2019-03-19T12:58:41.441Z,92.40
2019-03-19T13:01:14.185Z,92.20
2019-03-19T13:03:46.975Z,90.80
2019-03-19T13:06:19.640Z,91.20
2019-03-19T13:08:52.287Z,91.50
2019-03-19T13:11:24.919Z,92.00
2019-03-19T13:13:57.547Z,92.90
2019-03-19T13:16:30.215Z,94.70
2019-03-19T13:19:02.941Z,95.00
2019-03-19T13:21:35.715Z,93.20
2019-03-19T13:24:08.344Z,93.30
2019-03-19T13:26:41.007Z,97.50
2019-03-19T13:29:13.631Z,99.90
2019-03-19T13:31:46.296Z,99.90
2019-03-19T13:34:19.003Z,95.10
2019-03-19T13:36:51.719Z,96.20
2019-03-19T13:39:24.345Z,96.50
2019-03-19T13:41:57.093Z,99.90
2019-03-19T13:44:29.727Z,99.90
2019-03-19T13:47:02.377Z,98.70
2019-03-19T13:49:35.020Z,98.30
2019-03-19T13:52:07.718Z,99.90
2019-03-19T13:54:40.353Z,99.90
2019-03-19T13:57:13.020Z,99.90
2019-03-19T13:59:45.675Z,97.60
2019-03-19T14:02:18.326Z,97.20
2019-03-19T14:04:51.071Z,97.70
2019-03-19T14:07:23.734Z,96.40
2019-03-19T14:09:56.363Z,99.90
2019-03-19T14:12:29.045Z,99.90
2019-03-19T14:15:01.704Z,99.90
2019-03-19T14:17:34.376Z,93.50
2019-03-19T14:20:11.924Z,93.60
2019-03-19T14:22:45.362Z,94.70
2019-03-19T14:25:18.402Z,95.20
2019-03-19T14:27:51.065Z,96.30
2019-03-19T14:30:23.711Z,96.10
2019-03-19T14:32:56.427Z,96.00
2019-03-19T14:35:36.879Z,95.10
2019-03-19T14:38:03.436Z,95.90
2019-03-19T14:40:36.120Z,95.90
2019-03-19T14:43:08.763Z,94.60
2019-03-19T14:45:41.411Z,95.00
2019-03-19T14:48:14.062Z,96.20
2019-03-19T14:50:46.700Z,97.10
2019-03-19T14:53:19.415Z,98.00
2019-03-19T14:55:54.412Z,97.50
2019-03-19T14:58:26.409Z,97.50
2019-03-19T15:00:59.076Z,98.00
2019-03-19T15:03:31.728Z,98.50
2019-03-19T15:06:04.366Z,98.70
2019-03-19T15:08:37.100Z,98.70
2019-03-19T15:11:09.742Z,99.10
2019-03-19T15:13:42.398Z,98.80
2019-03-19T15:16:15.027Z,99.10
2019-03-19T15:18:47.679Z,99.10
2019-03-19T15:21:20.319Z,98.80
2019-03-19T15:23:52.969Z,98.80
2019-03-19T15:26:25.616Z,98.90
2019-03-19T15:28:58.260Z,99.90
2019-03-19T15:31:30.900Z,99.20
2019-03-19T15:34:03.587Z,99.70
2019-03-19T15:36:36.271Z,99.50
2019-03-19T15:39:08.917Z,99.60
2019-03-19T15:41:41.551Z,99.60
2019-03-19T15:44:14.199Z,99.60
2019-03-19T15:46:46.835Z,99.50
2019-03-19T15:49:19.472Z,99.20
2019-03-19T15:51:52.119Z,99.90
2019-03-19T15:54:26.631Z,99.90
2019-03-19T15:56:59.120Z,99.90
2019-03-19T15:59:31.772Z,99.80
2019-03-19T16:02:04.407Z,99.90
2019-03-19T16:04:37.072Z,99.90
2019-03-19T16:07:09.746Z,99.90
2019-03-19T16:09:42.435Z,99.90
2019-03-19T16:12:15.078Z,99.90
2019-03-19T16:14:47.780Z,99.90
2019-03-19T16:17:20.434Z,99.90
2019-03-19T16:19:53.094Z,99.90
2019-03-19T16:22:25.740Z,99.90
2019-03-19T16:24:58.443Z,99.90
2019-03-19T16:27:31.104Z,99.90
2019-03-19T16:30:04.627Z,99.90
2019-03-19T16:32:38.921Z,99.90
2019-03-19T16:35:11.841Z,99.90
2019-03-19T16:37:44.501Z,99.90
2019-03-19T16:40:17.212Z,99.90
2019-03-19T16:42:49.859Z,99.90
2019-03-19T16:45:22.501Z,99.90
2019-03-19T16:47:55.135Z,99.90
2019-03-19T16:50:27.788Z,99.90
2019-03-19T16:53:00.435Z,99.90
2019-03-19T16:55:33.099Z,99.90
2019-03-19T16:58:05.756Z,99.90
2019-03-19T17:00:38.407Z,99.90
2019-03-19T17:03:11.040Z,99.90
2019-03-19T17:05:43.694Z,99.90
2019-03-19T17:08:16.339Z,99.90
2019-03-19T17:10:48.979Z,99.90
2019-03-19T17:13:21.628Z,99.90
2019-03-19T17:16:14.290Z,99.90
2019-03-19T17:18:46.931Z,99.90
2019-03-19T17:21:19.595Z,99.90
2019-03-19T17:23:52.249Z,99.90
2019-03-19T17:26:24.976Z,99.90
2019-03-19T17:28:57.603Z,99.90
2019-03-19T17:31:30.271Z,99.90
2019-03-19T17:34:02.939Z,99.90
2019-03-19T17:36:35.616Z,99.90
2019-03-19T17:39:08.283Z,99.90
2019-03-19T17:41:40.928Z,99.90
2019-03-19T17:44:13.573Z,99.90
2019-03-19T17:46:46.222Z,99.90
2019-03-19T17:49:18.851Z,99.90
2019-03-19T17:51:51.503Z,99.90
2019-03-19T17:54:24.146Z,99.90
2019-03-19T17:56:56.877Z,99.90
2019-03-19T17:59:29.506Z,99.90
2019-03-19T18:02:02.163Z,99.90
2019-03-19T18:04:34.804Z,99.90
2019-03-19T18:07:07.447Z,99.90
2019-03-19T18:09:40.095Z,99.90
2019-03-19T18:12:13.103Z,99.90
2019-03-19T18:14:45.747Z,99.90
2019-03-19T18:17:18.400Z,99.90
2019-03-19T18:19:51.139Z,99.90
2019-03-19T18:22:23.790Z,99.90
2019-03-19T18:24:56.428Z,99.90
2019-03-19T18:27:29.294Z,99.90
2019-03-19T18:30:01.961Z,99.90
2019-03-19T18:32:35.518Z,99.90
2019-03-19T18:35:08.329Z,99.90
2019-03-19T18:37:40.984Z,99.90
2019-03-19T18:40:13.694Z,99.90
2019-03-19T18:42:46.334Z,99.90
2019-03-19T18:45:18.983Z,99.90
2019-03-19T18:47:51.644Z,99.90
2019-03-19T18:50:24.325Z,99.90
2019-03-19T18:52:56.971Z,99.90
2019-03-19T18:55:29.610Z,99.90
2019-03-19T18:58:02.264Z,99.90
2019-03-19T19:00:34.951Z,99.90
2019-03-19T19:03:07.612Z,99.90
2019-03-19T19:05:40.243Z,99.90
2019-03-19T19:08:12.905Z,99.90
2019-03-19T19:10:45.547Z,99.90
2019-03-19T19:13:18.196Z,99.90
2019-03-19T19:15:50.832Z,99.90
2019-03-19T19:18:23.575Z,99.90
2019-03-19T19:20:56.228Z,99.90
2019-03-19T19:23:28.887Z,99.90
2019-03-19T19:26:01.607Z,99.90
2019-03-19T19:28:34.252Z,99.90
2019-03-19T19:31:06.901Z,99.90
2019-03-19T19:33:39.542Z,99.90
2019-03-19T19:36:12.259Z,99.90
2019-03-19T19:38:44.960Z,99.90
2019-03-19T19:41:17.691Z,99.90
2019-03-19T19:43:50.451Z,99.90
2019-03-19T19:46:23.086Z,99.90
2019-03-19T19:48:55.840Z,99.90
2019-03-19T19:51:28.474Z,99.90
2019-03-19T19:54:01.147Z,99.90
2019-03-19T19:56:33.793Z,99.90
2019-03-19T19:59:06.530Z,99.90
2019-03-19T20:01:39.170Z,99.90
2019-03-19T20:04:11.815Z,99.90
2019-03-19T20:06:44.455Z,99.90
2019-03-19T20:09:17.165Z,99.90
2019-03-19T20:11:49.805Z,99.90
2019-03-19T20:14:22.452Z,99.90
2019-03-19T20:16:55.114Z,99.90
2019-03-19T20:19:27.779Z,99.90
2019-03-19T20:22:00.416Z,99.90
2019-03-19T20:24:33.070Z,99.90
2019-03-19T20:27:05.737Z,99.90
2019-03-19T20:29:38.425Z,99.90
2019-03-19T20:32:11.055Z,99.90
2019-03-19T20:34:43.731Z,99.90
2019-03-19T20:37:16.348Z,99.90
2019-03-19T20:39:49.243Z,99.90
2019-03-19T20:42:21.886Z,99.90
2019-03-19T20:44:54.575Z,99.90
2019-03-19T20:47:27.248Z,99.90
2019-03-19T20:49:59.924Z,99.90
2019-03-19T20:52:32.564Z,99.90
2019-03-19T20:55:05.239Z,99.90
2019-03-19T20:57:37.863Z,99.90
2019-03-19T21:00:12.703Z,99.90
2019-03-19T21:02:45.342Z,99.90
2019-03-19T21:05:17.988Z,99.90
2019-03-19T21:07:50.612Z,99.90
2019-03-19T21:10:23.271Z,99.90
2019-03-19T21:12:55.907Z,99.90
2019-03-19T21:15:28.784Z,99.90
2019-03-19T21:18:01.441Z,99.90
2019-03-19T21:20:34.201Z,99.90
2019-03-19T21:23:06.903Z,99.90
2019-03-19T21:25:39.591Z,99.90
2019-03-19T21:28:14.359Z,99.90
2019-03-19T21:30:46.647Z,99.90
2019-03-19T21:33:19.313Z,99.90
2019-03-19T21:35:51.995Z,99.90
2019-03-19T21:38:24.657Z,99.90
2019-03-19T21:40:57.322Z,99.90
2019-03-19T21:43:30.011Z,99.90
2019-03-19T21:46:02.700Z,99.90
2019-03-19T21:48:35.366Z,99.90
2019-03-19T21:51:08.045Z,99.90
2019-03-19T21:53:40.730Z,99.90
2019-03-19T21:56:13.374Z,99.90
2019-03-19T21:58:46.060Z,99.90
2019-03-19T22:01:18.755Z,99.90
2019-03-19T22:03:51.412Z,99.90
2019-03-19T22:06:24.058Z,99.90
2019-03-19T22:08:56.742Z,99.90
2019-03-19T22:11:29.419Z,99.90
2019-03-19T22:14:02.075Z,99.90
2019-03-19T22:16:34.758Z,99.90
2019-03-19T22:19:07.476Z,99.90
2019-03-19T22:21:40.183Z,99.90
2019-03-19T22:24:12.818Z,99.90
2019-03-19T22:26:45.526Z,99.90
2019-03-19T22:29:18.160Z,99.90
2019-03-19T22:31:50.825Z,99.90
2019-03-19T22:34:23.474Z,99.90
2019-03-19T22:36:56.196Z,99.90
2019-03-19T22:39:28.863Z,99.90
2019-03-19T22:42:01.583Z,99.90
2019-03-19T22:44:34.226Z,99.90
2019-03-19T22:47:06.899Z,99.90
2019-03-19T22:49:39.536Z,99.90
2019-03-19T22:52:12.186Z,99.90
2019-03-19T22:54:44.871Z,99.90
2019-03-19T22:57:17.548Z,99.90
2019-03-19T22:59:50.188Z,99.90
2019-03-19T23:02:22.869Z,99.90
2019-03-19T23:04:55.509Z,99.90
2019-03-19T23:07:28.186Z,99.90
2019-03-19T23:10:00.827Z,99.90
2019-03-19T23:12:33.511Z,99.90
2019-03-19T23:15:08.172Z,99.90
2019-03-19T23:17:40.821Z,99.90
2019-03-19T23:20:13.467Z,99.90
2019-03-19T23:22:46.161Z,99.90
2019-03-19T23:25:18.804Z,99.90
2019-03-19T23:27:51.479Z,99.90
2019-03-19T23:30:24.217Z,99.90
2019-03-19T23:32:56.881Z,99.90
2019-03-19T23:35:29.507Z,99.90
2019-03-19T23:38:02.162Z,99.90
2019-03-19T23:40:34.795Z,99.90
2019-03-19T23:43:07.560Z,99.90
2019-03-19T23:45:40.200Z,99.90
2019-03-19T23:48:13.677Z,99.90
2019-03-19T23:50:46.330Z,99.90
2019-03-19T23:53:18.998Z,99.90
2019-03-19T23:55:51.636Z,99.90
2019-03-19T23:58:24.303Z,99.90
